Airfield :
LOGIN :

Register | Disclaimer

   EN    FR    IT 

 










Legend :    VFR   Marginal VFR   IFR   Intensive IFR   Very Intensive IFR
Visi :
Ceiling :
>= 8 km
>= 3000ft
5 to 8 km
1000 to 3000 ft
1500m to 5 km
500 to 1000 ft
800 to 1500m
200 to 500 ft
< 800m
< 200 ft
Symbols :   Thunderstorms  Fog  Heavy snow  Heavy precipitations  Wind > 20 kt
SIGMETs :     Misc.  Thunderstorms  Icing  Turbulence  Mountain Waves  Volcanic Ashes







- Airport Elevation : 459 ft
- IATA code : CER
- Download approach charts


LFRC - Cherbourg / Maupertus

CURRENT METAR :
  • 191200Z AUTO 20012KT 9999 BKN009 BKN013 BKN021 16/14 Q1003 BECMG 19020G30KT BKN020

EXPIRED METARs :
  • 191130Z AUTO 20011KT 6000 OVC007 15/14 Q1004 BECMG 19020G30KT BKN020
  • 191100Z AUTO 21016KT 3000 BR OVC004 15/14 Q1004 BECMG 19020G30KT 9999 NSW BKN020
  • 191030Z AUTO 20018KT 6000 OVC006 15/14 Q1004 TEMPO 4000 RA BECMG 19020G30KT BKN020
  • 191000Z AUTO 18014KT 9000 OVC007 15/14 Q1004 TEMPO 4000 RA BKN010 BECMG 20015G25KT
  • 190930Z AUTO 19010KT 9000 SCT007 OVC080 15/14 Q1004 TEMPO 4000 RA BKN010 BECMG 20015G25KT

TAF AMD TAF LFRC
Valid from the 19 at 12:00 until the 19 at 21:00 UTC


191127Z 1912/1921 20015G25KT 3000 BR BKN004
BECMG 1912/1915 9999 NSW BKN020
BECMG 1912/1915 19020G30KT
BECMG 1915/1918 18022G35KT 5000 RA BKN030
TEMPO 1918/1920 20025G40KT 3000 RA BKN007
BECMG 1919/1921 24025G35KT 9999 NSW BKN020
No reported NOTAMs for that airfield.
1 SIGMET reported for the Brest FIR (LFRR) :
 
Severe turbulence
LFRR SIGMET 3 VALID 191000/191400 LFPW
LFRR BREST FIR/UIR SEV TURB FCST WI N4530 W00145 - N4330 W00145 - N4400 W00345 - N4530 W00345 FL220/330 MOV E 10KT NC=



MET'MAP, your aeronautical weather chart ! - Copyright ORBIFLY December 2007 - Disclaimer

ORBIFLY MET'MAP TEAM :

Programming & Development : Alexandra Zaïnal
Concept & Development : Baudouin d'Aumeries
Co-Development & Prog : Marc-Olivier Méhu
Technical & hardware support : Manuel Goepfert

Contact : metmap@orbifly.com




SOURCES & CREDITS :

   NOAA